Decoded Metar for UKLR (ROVNO in UKRAINE) (IATA:N/A) | Meteo·Mobile Aviation Weather
aviador You're here:

UKLR Decoded Metar

ROVNO in UKRAINE
Report Time2018-12-16 11:00:00
UTC Time2018-12-16 11:29:29
Flight Rules ifr IFR
Wind120° at 16 kt
W.Decomp.*RWY 12: 16.0 kt HW 0.8 kt LCW
W.Rank120° ranks 9
Current wind is above 120° avg. (7.3)
Visibility6000 m
Phenomena:Low Drifting Snow
Light Snow
Clouds:Overcast 009 Hf
Expected CloudBase > 400 ft AGL from Temp-Dew spread
Ceiling900 ft
Temp-3°C (ISA -17)
Dew Point-4°C (93% RH)
AAT-11.3°C
QNH1023 hPa
Density Alt-1,549 ft
Elevation755 ft
Report Wrong Elevation
Raw Report
UKLR 161100Z 12008MPS 090V150 6000 -SN DRSN OVC009 M03/M04 Q1023
NOSIG=

Extra information for UKLR:More info

Metar Taf Metar & Taf Last 4 Metars F.Rules Stats Wind Profile Meteogram Temp Stats Airport Information Weather charts Add Link Nearby VenuesMetar ALERT Operation Metar Decoded Social comments